Time;durP1;ratioP1;P1;durP2;ratioP2;P2;SDS_P1;SDS_P2;PMS_P1;PMS_P2;Temp;Humidity;BMP_temperature;BMP_pressure;BME280_temperature;BME280_humidity;BME280_pressure;Samples;Min_cycle;Max_cycle;Signal;HPM_P1;HPM_P2
2023/08/30 00:00:35;;;;;;;1.50;0.88;;;;;;;;;;5073685;28;20036;-76
2023/08/30 00:03:00;;;;;;;0.73;0.73;;;;;;;;;;5073581;28;20123;-76
2023/08/30 00:05:27;;;;;;;0.80;0.80;;;;;;;;;;5087681;28;20452;-76
2023/08/30 00:07:54;;;;;;;0.52;0.52;;;;;;;;;;5090722;28;20051;-76
2023/08/30 00:10:19;;;;;;;1.35;0.80;;;;;;;;;;5082921;28;20029;-76
2023/08/30 00:12:44;;;;;;;2.15;0.90;;;;;;;;;;5073463;28;20039;-76
2023/08/30 00:15:10;;;;;;;1.55;0.88;;;;;;;;;;5091344;28;20498;-76
2023/08/30 00:17:35;;;;;;;0.93;0.93;;;;;;;;;;5085949;28;20050;-77
2023/08/30 00:20:01;;;;;;;2.15;0.80;;;;;;;;;;5077697;28;20519;-77
2023/08/30 00:22:27;;;;;;;1.15;1.05;;;;;;;;;;5082667;28;20032;-77
2023/08/30 00:24:53;;;;;;;0.63;0.63;;;;;;;;;;5101701;28;20040;-77
2023/08/30 00:27:20;;;;;;;1.20;1.02;;;;;;;;;;5090427;28;20032;-76
2023/08/30 00:29:46;;;;;;;1.92;1.08;;;;;;;;;;5075905;28;20483;-77
2023/08/30 00:32:11;;;;;;;1.98;1.10;;;;;;;;;;5088454;28;20032;-77
2023/08/30 00:34:37;;;;;;;1.77;1.00;;;;;;;;;;5074188;28;20028;-77
2023/08/30 00:37:03;;;;;;;0.90;0.85;;;;;;;;;;5079282;28;20071;-77
2023/08/30 00:39:28;;;;;;;3.65;1.40;;;;;;;;;;5074342;28;20063;-77
2023/08/30 00:41:54;;;;;;;1.48;1.02;;;;;;;;;;5092374;28;20063;-77
2023/08/30 00:44:19;;;;;;;1.50;0.80;;;;;;;;;;5078516;28;20036;-77
2023/08/30 00:46:45;;;;;;;8.30;1.45;;;;;;;;;;5075434;28;20024;-77
2023/08/30 00:49:10;;;;;;;4.75;1.45;;;;;;;;;;5083847;28;20051;-77
2023/08/30 00:51:36;;;;;;;7.80;2.30;;;;;;;;;;5073667;28;20119;-77
2023/08/30 00:54:02;;;;;;;2.78;1.20;;;;;;;;;;5080008;28;20138;-77
2023/08/30 00:56:28;;;;;;;6.38;2.33;;;;;;;;;;5075161;28;20043;-77
2023/08/30 00:58:54;;;;;;;1.92;1.67;;;;;;;;;;5089548;28;20060;-77
2023/08/30 01:01:20;;;;;;;2.80;1.58;;;;;;;;;;5086621;28;20526;-77
2023/08/30 01:03:46;;;;;;;2.58;1.58;;;;;;;;;;5070804;28;20039;-77
2023/08/30 01:06:13;;;;;;;2.30;1.77;;;;;;;;;;5074322;28;20456;-76
2023/08/30 01:08:39;;;;;;;1.98;1.70;;;;;;;;;;5088932;28;20048;-76
2023/08/30 01:11:15;;;;;;;3.72;1.98;;;;;;;;;;5088724;28;20376;-76
2023/08/30 01:13:44;;;;;;;8.02;1.65;;;;;;;;;;5090421;28;20509;-76
2023/08/30 01:16:11;;;;;;;3.90;1.95;;;;;;;;;;5075855;28;20032;-76
2023/08/30 01:18:39;;;;;;;2.63;1.92;;;;;;;;;;5090820;28;20043;-77
2023/08/30 01:21:09;;;;;;;2.25;1.77;;;;;;;;;;5083031;28;20029;-77
2023/08/30 01:23:58;;;;;;;3.03;1.73;;;;;;;;;;5076555;28;20036;-77
2023/08/30 01:26:41;;;;;;;1.65;1.55;;;;;;;;;;5088136;28;20071;-77
2023/08/30 01:29:11;;;;;;;3.33;1.70;;;;;;;;;;5074103;28;20032;-76
2023/08/30 01:31:38;;;;;;;2.33;1.88;;;;;;;;;;5074828;28;20063;-76
2023/08/30 01:34:03;;;;;;;2.40;1.80;;;;;;;;;;5087915;28;20428;-76
2023/08/30 01:36:31;;;;;;;1.50;1.40;;;;;;;;;;5082250;28;20037;-76
2023/08/30 01:38:58;;;;;;;2.05;1.73;;;;;;;;;;5086939;28;20055;-76
2023/08/30 01:41:24;;;;;;;3.10;1.90;;;;;;;;;;5087756;28;20036;-76
2023/08/30 01:43:52;;;;;;;2.55;1.50;;;;;;;;;;5091706;28;20107;-75
2023/08/30 01:46:19;;;;;;;2.55;1.70;;;;;;;;;;5090601;28;20028;-76
2023/08/30 01:48:47;;;;;;;1.90;1.70;;;;;;;;;;5082573;28;20024;-76
2023/08/30 01:51:14;;;;;;;2.65;1.50;;;;;;;;;;5070582;28;20047;-76
2023/08/30 01:53:43;;;;;;;2.67;1.70;;;;;;;;;;5076408;28;20495;-76
2023/08/30 01:56:08;;;;;;;1.85;1.70;;;;;;;;;;5087405;28;20043;-76
2023/08/30 01:58:34;;;;;;;1.70;1.60;;;;;;;;;;5089845;28;20032;-76
2023/08/30 02:01:00;;;;;;;14.15;1.88;;;;;;;;;;5088080;28;20039;-76
2023/08/30 02:03:26;;;;;;;8.15;2.17;;;;;;;;;;5076731;28;20508;-76
2023/08/30 02:06:08;;;;;;;1.60;1.50;;;;;;;;;;5081402;28;20047;-75
2023/08/30 02:08:52;;;;;;;2.30;2.10;;;;;;;;;;5082344;28;20043;-76
2023/08/30 02:11:25;;;;;;;1.80;1.70;;;;;;;;;;5085585;28;20028;-76
2023/08/30 02:13:56;;;;;;;1.67;1.57;;;;;;;;;;5088630;28;20047;-79
2023/08/30 02:16:22;;;;;;;1.60;1.50;;;;;;;;;;5091378;28;20296;-75
2023/08/30 02:18:49;;;;;;;1.70;1.60;;;;;;;;;;5089595;28;20123;-74
2023/08/30 02:21:16;;;;;;;1.95;1.75;;;;;;;;;;5075315;28;20438;-74
2023/08/30 02:23:41;;;;;;;2.05;1.85;;;;;;;;;;5088541;28;20032;-74
2023/08/30 02:26:07;;;;;;;4.45;1.75;;;;;;;;;;5082276;28;20040;-74
2023/08/30 02:28:32;;;;;;;2.50;1.73;;;;;;;;;;5079582;28;20040;-75
2023/08/30 02:30:58;;;;;;;1.90;1.67;;;;;;;;;;5078100;28;20058;-74
2023/08/30 02:33:23;;;;;;;36.00;2.08;;;;;;;;;;5086740;28;20580;-74
2023/08/30 02:35:49;;;;;;;2.45;1.90;;;;;;;;;;5089832;28;20043;-74
2023/08/30 02:38:14;;;;;;;2.10;1.92;;;;;;;;;;5067990;28;20067;-74
2023/08/30 02:40:40;;;;;;;2.63;2.40;;;;;;;;;;5090542;28;20036;-74
2023/08/30 02:43:06;;;;;;;2.20;2.00;;;;;;;;;;5088736;28;20344;-74
2023/08/30 02:45:32;;;;;;;2.20;1.85;;;;;;;;;;5077657;28;20040;-74
2023/08/30 02:47:57;;;;;;;11.68;2.40;;;;;;;;;;5082328;28;20051;-75
2023/08/30 02:50:24;;;;;;;2.60;2.40;;;;;;;;;;5089100;28;20029;-75
2023/08/30 02:52:50;;;;;;;7.70;2.30;;;;;;;;;;5082358;28;20029;-75
2023/08/30 02:55:15;;;;;;;3.97;2.47;;;;;;;;;;5080230;28;20376;-76
2023/08/30 02:57:41;;;;;;;6.75;2.53;;;;;;;;;;5093669;28;20055;-77
2023/08/30 03:00:07;;;;;;;3.35;2.40;;;;;;;;;;5088294;28;20039;-74
2023/08/30 03:02:33;;;;;;;3.50;2.63;;;;;;;;;;5060959;28;20406;-74
2023/08/30 03:04:59;;;;;;;2.63;2.42;;;;;;;;;;5086417;28;20156;-74
2023/08/30 03:07:25;;;;;;;5.47;2.63;;;;;;;;;;5083876;28;20056;-74
2023/08/30 03:09:55;;;;;;;2.28;2.08;;;;;;;;;;5102348;28;20028;-73
2023/08/30 03:12:20;;;;;;;3.95;2.75;;;;;;;;;;5090849;28;20036;-74
2023/08/30 03:14:46;;;;;;;2.50;2.30;;;;;;;;;;5074300;28;20028;-74
2023/08/30 03:17:12;;;;;;;2.80;2.20;;;;;;;;;;5078167;28;20120;-74
2023/08/30 03:19:38;;;;;;;4.85;2.80;;;;;;;;;;5084936;28;20032;-74
2023/08/30 03:22:03;;;;;;;3.50;2.72;;;;;;;;;;5084748;28;20032;-74
2023/08/30 03:24:29;;;;;;;3.20;2.90;;;;;;;;;;5083627;28;20027;-73
2023/08/30 03:26:54;;;;;;;2.75;2.30;;;;;;;;;;5102782;28;20035;-73
2023/08/30 03:29:19;;;;;;;3.88;2.55;;;;;;;;;;5092194;28;20028;-74
2023/08/30 03:31:47;;;;;;;3.47;2.95;;;;;;;;;;5091831;28;20024;-74
2023/08/30 03:34:13;;;;;;;4.35;2.70;;;;;;;;;;5091122;28;20119;-74
2023/08/30 03:36:39;;;;;;;4.85;2.55;;;;;;;;;;5092520;28;20110;-74
2023/08/30 03:39:05;;;;;;;3.42;3.03;;;;;;;;;;5094009;28;20050;-74
2023/08/30 03:41:30;;;;;;;4.07;2.97;;;;;;;;;;5092667;28;20040;-74
2023/08/30 03:43:55;;;;;;;3.13;2.78;;;;;;;;;;5092561;28;20038;-74
2023/08/30 03:46:21;;;;;;;6.13;3.10;;;;;;;;;;5092354;28;20422;-74
2023/08/30 03:48:46;;;;;;;5.07;3.35;;;;;;;;;;5072526;28;20044;-74
2023/08/30 03:51:12;;;;;;;7.15;3.40;;;;;;;;;;5072051;28;20039;-74
2023/08/30 03:53:38;;;;;;;6.18;3.40;;;;;;;;;;5093030;28;20028;-74
2023/08/30 03:56:04;;;;;;;4.35;3.17;;;;;;;;;;5092595;28;20115;-74
2023/08/30 03:58:29;;;;;;;5.70;3.10;;;;;;;;;;5093832;28;20031;-74
2023/08/30 04:00:56;;;;;;;4.53;3.65;;;;;;;;;;5091448;28;20039;-74
2023/08/30 04:03:22;;;;;;;3.75;3.05;;;;;;;;;;5092668;28;20032;-74
2023/08/30 04:05:47;;;;;;;4.05;2.95;;;;;;;;;;5092432;28;20085;-74
2023/08/30 04:08:16;;;;;;;4.95;3.33;;;;;;;;;;5092036;28;20036;-74
2023/08/30 04:10:41;;;;;;;4.35;3.53;;;;;;;;;;5095291;28;20122;-74
2023/08/30 04:13:08;;;;;;;3.15;2.85;;;;;;;;;;5112517;28;20118;-74
2023/08/30 04:15:38;;;;;;;4.53;3.00;;;;;;;;;;5113661;28;20031;-74
2023/08/30 04:18:04;;;;;;;3.05;2.75;;;;;;;;;;5099737;28;20054;-74
2023/08/30 04:20:30;;;;;;;4.68;2.97;;;;;;;;;;5091127;28;20024;-74
2023/08/30 04:22:56;;;;;;;3.10;2.80;;;;;;;;;;5071124;28;20036;-74
2023/08/30 04:25:23;;;;;;;5.00;3.10;;;;;;;;;;5072037;28;20286;-74
2023/08/30 04:27:48;;;;;;;2.70;2.50;;;;;;;;;;5071823;28;20033;-74
2023/08/30 04:30:16;;;;;;;3.85;3.13;;;;;;;;;;5076178;28;20028;-74
2023/08/30 04:32:41;;;;;;;3.97;2.83;;;;;;;;;;5093183;28;20411;-75
2023/08/30 04:35:07;;;;;;;3.33;3.03;;;;;;;;;;5092029;28;20032;-74
2023/08/30 04:37:32;;;;;;;4.20;3.33;;;;;;;;;;5091833;28;20145;-74
2023/08/30 04:39:58;;;;;;;6.43;3.97;;;;;;;;;;5093401;28;20100;-74
2023/08/30 04:42:26;;;;;;;4.90;3.78;;;;;;;;;;5091166;28;20517;-74
2023/08/30 04:44:54;;;;;;;8.07;3.70;;;;;;;;;;5091105;28;20418;-74
2023/08/30 04:47:19;;;;;;;4.05;3.50;;;;;;;;;;5092370;28;20065;-74
2023/08/30 04:49:50;;;;;;;5.60;3.70;;;;;;;;;;5091766;28;20039;-74
2023/08/30 04:52:15;;;;;;;5.88;3.72;;;;;;;;;;5090935;28;20479;-74
2023/08/30 04:54:42;;;;;;;4.18;3.72;;;;;;;;;;5091378;28;20078;-74
2023/08/30 04:57:08;;;;;;;5.80;4.25;;;;;;;;;;5091529;28;20511;-74
2023/08/30 04:59:34;;;;;;;5.05;4.00;;;;;;;;;;5091258;28;20024;-74
2023/08/30 05:01:59;;;;;;;4.20;3.50;;;;;;;;;;5092167;28;20040;-74
2023/08/30 05:04:27;;;;;;;4.35;3.35;;;;;;;;;;5091528;28;20024;-75
2023/08/30 05:06:52;;;;;;;3.97;3.58;;;;;;;;;;5091362;28;20042;-74
2023/08/30 05:09:18;;;;;;;7.25;3.55;;;;;;;;;;5090966;28;20094;-75
2023/08/30 05:11:43;;;;;;;4.68;3.58;;;;;;;;;;5090775;28;20162;-74
2023/08/30 05:14:12;;;;;;;4.03;3.53;;;;;;;;;;5090521;28;20406;-74
2023/08/30 05:16:38;;;;;;;4.07;3.08;;;;;;;;;;5090878;28;20024;-74
2023/08/30 05:19:04;;;;;;;4.90;3.70;;;;;;;;;;5090880;28;20031;-75
2023/08/30 05:21:29;;;;;;;3.17;2.88;;;;;;;;;;5089935;28;20410;-74
2023/08/30 05:23:55;;;;;;;4.07;3.58;;;;;;;;;;5090780;28;20152;-76
2023/08/30 05:26:21;;;;;;;4.00;2.92;;;;;;;;;;5092171;28;20036;-76
2023/08/30 05:28:46;;;;;;;3.63;3.33;;;;;;;;;;5091747;28;20040;-76
2023/08/30 05:31:12;;;;;;;5.07;2.80;;;;;;;;;;5090196;28;20051;-75
2023/08/30 05:34:13;;;;;;;3.75;3.03;;;;;;;;;;5078845;28;20115;-75
2023/08/30 05:36:57;;;;;;;3.05;2.80;;;;;;;;;;5085880;28;20109;-75
2023/08/30 05:39:49;;;;;;;2.65;2.45;;;;;;;;;;5085122;28;20067;-75
2023/08/30 05:42:16;;;;;;;4.03;3.10;;;;;;;;;;5090081;28;20032;-75
2023/08/30 05:44:41;;;;;;;3.80;2.95;;;;;;;;;;5089840;28;20044;-75
2023/08/30 05:47:06;;;;;;;3.38;3.05;;;;;;;;;;5091377;28;20115;-75
2023/08/30 05:49:32;;;;;;;3.20;2.90;;;;;;;;;;5088795;28;20097;-75
2023/08/30 05:51:57;;;;;;;3.08;2.78;;;;;;;;;;5090511;28;20052;-75
2023/08/30 05:54:23;;;;;;;3.35;3.05;;;;;;;;;;5090481;28;20028;-75
2023/08/30 05:56:49;;;;;;;7.15;3.28;;;;;;;;;;5090441;28;20048;-76
2023/08/30 05:59:16;;;;;;;2.95;2.53;;;;;;;;;;5090458;28;20446;-75
2023/08/30 06:01:42;;;;;;;4.70;2.58;;;;;;;;;;5091019;28;20407;-75
2023/08/30 06:04:07;;;;;;;3.42;2.72;;;;;;;;;;5090817;28;20036;-76
2023/08/30 06:06:32;;;;;;;3.00;2.60;;;;;;;;;;5091437;28;20421;-76
2023/08/30 06:08:58;;;;;;;2.92;2.42;;;;;;;;;;5092416;28;20518;-76
2023/08/30 06:11:23;;;;;;;4.53;2.60;;;;;;;;;;5098954;28;20043;-76
2023/08/30 06:13:49;;;;;;;5.13;2.70;;;;;;;;;;5112498;28;20084;-76
2023/08/30 06:16:14;;;;;;;5.05;3.40;;;;;;;;;;5104634;28;20491;-76
2023/08/30 06:18:41;;;;;;;5.60;3.10;;;;;;;;;;5092277;28;20518;-76
2023/08/30 06:21:06;;;;;;;4.93;3.47;;;;;;;;;;5091934;28;20082;-76
2023/08/30 06:23:33;;;;;;;3.97;3.38;;;;;;;;;;5091073;28;20036;-76
2023/08/30 06:25:59;;;;;;;3.78;3.38;;;;;;;;;;5091844;28;20498;-76
2023/08/30 06:28:25;;;;;;;3.10;2.78;;;;;;;;;;5092474;28;20101;-76
2023/08/30 06:30:50;;;;;;;4.13;3.60;;;;;;;;;;5091696;28;20598;-76
2023/08/30 06:33:16;;;;;;;5.32;3.75;;;;;;;;;;5091459;28;20038;-76
2023/08/30 06:35:42;;;;;;;3.83;3.40;;;;;;;;;;5089010;28;20111;-76
2023/08/30 06:38:08;;;;;;;4.88;3.10;;;;;;;;;;5091604;28;20040;-76
2023/08/30 06:40:33;;;;;;;3.40;3.10;;;;;;;;;;5095575;28;20097;-76
2023/08/30 06:42:59;;;;;;;3.95;3.35;;;;;;;;;;5111101;28;20062;-76
2023/08/30 06:45:25;;;;;;;3.72;3.25;;;;;;;;;;5092090;28;20036;-76
2023/08/30 06:47:51;;;;;;;3.58;3.08;;;;;;;;;;5091599;28;20085;-76
2023/08/30 06:50:17;;;;;;;3.58;2.90;;;;;;;;;;5091654;28;20134;-76
2023/08/30 06:52:42;;;;;;;3.50;2.72;;;;;;;;;;5091095;28;20104;-76
2023/08/30 06:55:08;;;;;;;3.40;3.10;;;;;;;;;;5090338;28;20490;-76
2023/08/30 06:57:33;;;;;;;3.13;2.83;;;;;;;;;;5091592;28;20032;-76
2023/08/30 07:00:04;;;;;;;4.10;3.40;;;;;;;;;;5090909;28;20039;-76
2023/08/30 07:02:30;;;;;;;5.07;3.35;;;;;;;;;;5091073;28;20375;-76
2023/08/30 07:04:56;;;;;;;3.33;2.72;;;;;;;;;;5091048;28;20048;-76
2023/08/30 07:07:21;;;;;;;3.92;3.17;;;;;;;;;;5091044;28;20085;-77
2023/08/30 07:09:46;;;;;;;3.13;2.65;;;;;;;;;;5092180;28;20036;-78
2023/08/30 07:12:12;;;;;;;2.85;2.50;;;;;;;;;;5095284;28;20107;-79
2023/08/30 07:14:37;;;;;;;3.58;2.80;;;;;;;;;;5091874;28;20039;-77
2023/08/30 07:17:03;;;;;;;2.50;2.30;;;;;;;;;;5089911;28;20118;-76
2023/08/30 07:19:28;;;;;;;2.90;2.60;;;;;;;;;;5091645;28;20036;-77
2023/08/30 07:21:54;;;;;;;3.22;2.92;;;;;;;;;;5090619;28;20106;-77
2023/08/30 07:24:19;;;;;;;3.28;2.97;;;;;;;;;;5106143;28;20036;-77
2023/08/30 07:26:45;;;;;;;3.55;3.10;;;;;;;;;;5102576;28;20035;-77
2023/08/30 07:29:10;;;;;;;8.13;3.35;;;;;;;;;;5089569;28;20092;-77
2023/08/30 07:31:36;;;;;;;6.28;3.30;;;;;;;;;;5105030;28;20032;-78
2023/08/30 07:34:02;;;;;;;6.32;3.00;;;;;;;;;;5112796;28;20039;-78
2023/08/30 07:36:28;;;;;;;3.95;2.97;;;;;;;;;;5116375;28;20039;-78
2023/08/30 07:38:54;;;;;;;3.13;2.67;;;;;;;;;;5117897;28;20043;-79
2023/08/30 07:41:19;;;;;;;2.90;2.65;;;;;;;;;;5117374;27;20071;-79
2023/08/30 07:43:44;;;;;;;3.75;2.95;;;;;;;;;;5118949;28;20032;-78
2023/08/30 07:46:10;;;;;;;8.25;3.30;;;;;;;;;;5105797;28;20052;-79
2023/08/30 07:48:36;;;;;;;2.97;2.60;;;;;;;;;;5101979;28;20039;-79
2023/08/30 07:51:01;;;;;;;4.78;2.47;;;;;;;;;;5102351;28;20398;-78
2023/08/30 07:53:27;;;;;;;2.97;2.67;;;;;;;;;;5109442;28;20070;-80
2023/08/30 07:55:52;;;;;;;2.80;2.53;;;;;;;;;;5125261;28;20070;-80
2023/08/30 07:58:18;;;;;;;2.83;2.55;;;;;;;;;;5115883;28;20036;-79
2023/08/30 08:00:43;;;;;;;3.30;2.78;;;;;;;;;;5101063;28;20032;-78
2023/08/30 08:03:10;;;;;;;3.33;2.60;;;;;;;;;;5107025;28;20380;-79
2023/08/30 08:05:36;;;;;;;4.95;2.97;;;;;;;;;;5093896;28;20040;-78
2023/08/30 08:08:02;;;;;;;4.38;2.50;;;;;;;;;;5093076;28;20044;-77
2023/08/30 08:10:31;;;;;;;2.45;2.25;;;;;;;;;;5094314;28;20085;-76
2023/08/30 08:12:57;;;;;;;3.05;2.38;;;;;;;;;;5093706;28;20376;-76
2023/08/30 08:15:22;;;;;;;3.30;2.75;;;;;;;;;;5093716;28;20134;-76
2023/08/30 08:17:49;;;;;;;3.22;2.58;;;;;;;;;;5093811;28;20032;-76
2023/08/30 08:20:14;;;;;;;3.97;2.78;;;;;;;;;;5093615;28;20032;-76
2023/08/30 08:22:40;;;;;;;3.08;2.40;;;;;;;;;;5093403;28;20043;-76
2023/08/30 08:25:06;;;;;;;3.80;2.63;;;;;;;;;;5092952;28;20035;-75
2023/08/30 08:27:31;;;;;;;3.17;2.58;;;;;;;;;;5101024;28;20028;-75
2023/08/30 08:29:56;;;;;;;2.80;2.30;;;;;;;;;;5108500;28;20100;-76
2023/08/30 08:32:22;;;;;;;2.40;2.20;;;;;;;;;;5111357;28;20028;-76
2023/08/30 08:34:47;;;;;;;3.40;2.70;;;;;;;;;;5106544;28;20411;-76
2023/08/30 08:37:13;;;;;;;3.03;2.50;;;;;;;;;;5091344;28;20536;-76
2023/08/30 08:39:38;;;;;;;3.28;2.72;;;;;;;;;;5090596;28;20115;-76
2023/08/30 08:42:04;;;;;;;3.65;2.80;;;;;;;;;;5090849;28;20493;-76
2023/08/30 08:44:32;;;;;;;3.45;2.53;;;;;;;;;;5091543;28;20541;-76
2023/08/30 08:46:59;;;;;;;2.55;2.35;;;;;;;;;;5091360;28;20046;-76
2023/08/30 08:49:28;;;;;;;3.60;3.00;;;;;;;;;;5090508;28;20510;-76
2023/08/30 08:51:54;;;;;;;3.22;2.40;;;;;;;;;;5090975;28;20046;-76
2023/08/30 08:54:20;;;;;;;3.90;3.20;;;;;;;;;;5091992;28;20043;-76
2023/08/30 08:56:46;;;;;;;4.97;3.00;;;;;;;;;;5093093;28;20051;-76
2023/08/30 08:59:11;;;;;;;3.88;2.60;;;;;;;;;;5092620;28;20050;-76
2023/08/30 09:01:39;;;;;;;3.65;2.72;;;;;;;;;;5092264;28;20036;-76
2023/08/30 09:04:09;;;;;;;7.07;2.70;;;;;;;;;;5092504;28;20118;-76
2023/08/30 09:06:35;;;;;;;6.15;2.58;;;;;;;;;;5091338;28;20058;-76
2023/08/30 09:09:03;;;;;;;4.38;2.72;;;;;;;;;;5092419;28;20056;-76
2023/08/30 09:11:29;;;;;;;3.05;2.53;;;;;;;;;;5092216;28;20043;-76
2023/08/30 09:13:55;;;;;;;5.05;2.53;;;;;;;;;;5091292;28;20408;-76
2023/08/30 09:16:20;;;;;;;2.55;2.30;;;;;;;;;;5092435;28;20511;-76
2023/08/30 09:19:03;;;;;;;4.55;2.35;;;;;;;;;;5092872;28;20069;-77
2023/08/30 09:21:31;;;;;;;3.42;2.63;;;;;;;;;;5091671;28;20040;-76
2023/08/30 09:24:01;;;;;;;3.28;2.42;;;;;;;;;;5092182;28;20089;-78
2023/08/30 09:26:34;;;;;;;2.67;2.20;;;;;;;;;;5092716;28;20063;-78
2023/08/30 09:29:04;;;;;;;4.32;2.15;;;;;;;;;;5074416;28;20035;-77
2023/08/30 09:31:34;;;;;;;3.88;2.40;;;;;;;;;;5091812;28;20115;-77
2023/08/30 09:34:01;;;;;;;2.55;2.35;;;;;;;;;;5092297;28;20032;-77
2023/08/30 09:36:33;;;;;;;2.22;2.00;;;;;;;;;;5092654;28;20063;-77
2023/08/30 09:38:58;;;;;;;5.47;2.85;;;;;;;;;;5091800;28;20032;-76
2023/08/30 09:41:24;;;;;;;3.55;2.35;;;;;;;;;;5091026;28;20597;-77
2023/08/30 09:43:50;;;;;;;6.05;2.60;;;;;;;;;;5092142;28;20040;-77
2023/08/30 09:46:15;;;;;;;3.42;2.35;;;;;;;;;;5089971;28;20430;-77
2023/08/30 09:48:41;;;;;;;3.33;2.40;;;;;;;;;;5091924;28;20502;-77
2023/08/30 09:51:08;;;;;;;3.83;2.42;;;;;;;;;;5090281;28;20032;-77
2023/08/30 09:53:42;;;;;;;4.38;2.50;;;;;;;;;;5089764;28;20484;-77
2023/08/30 09:56:10;;;;;;;3.30;2.70;;;;;;;;;;5089994;28;20068;-77
2023/08/30 09:58:36;;;;;;;3.50;2.70;;;;;;;;;;5088155;28;20038;-77
2023/08/30 10:01:02;;;;;;;3.55;2.50;;;;;;;;;;5087942;28;20059;-77
2023/08/30 10:03:31;;;;;;;2.65;2.30;;;;;;;;;;5089863;28;20031;-77
2023/08/30 10:05:58;;;;;;;2.35;2.10;;;;;;;;;;5089984;28;20540;-77
2023/08/30 10:08:29;;;;;;;5.55;2.45;;;;;;;;;;5091308;28;20052;-77
2023/08/30 10:10:55;;;;;;;3.75;2.50;;;;;;;;;;5091970;28;20032;-77
2023/08/30 10:13:22;;;;;;;4.63;2.60;;;;;;;;;;5091445;28;20039;-77
2023/08/30 10:15:51;;;;;;;3.80;2.80;;;;;;;;;;5091404;28;20078;-77
2023/08/30 10:18:20;;;;;;;2.65;2.30;;;;;;;;;;5091584;28;20035;-77
2023/08/30 10:20:47;;;;;;;2.45;2.25;;;;;;;;;;5091388;28;20054;-77
2023/08/30 10:23:14;;;;;;;3.95;2.60;;;;;;;;;;5091575;28;20032;-77
2023/08/30 10:25:41;;;;;;;3.63;2.63;;;;;;;;;;5091441;28;20052;-77
2023/08/30 10:28:07;;;;;;;3.50;2.53;;;;;;;;;;5091114;28;20032;-77
2023/08/30 10:30:33;;;;;;;4.03;2.78;;;;;;;;;;5091571;28;20391;-77
2023/08/30 10:32:59;;;;;;;3.92;2.50;;;;;;;;;;5090134;28;20043;-77
2023/08/30 10:35:25;;;;;;;3.75;2.88;;;;;;;;;;5087611;28;20031;-77
2023/08/30 10:37:59;;;;;;;3.60;2.80;;;;;;;;;;5086955;28;20034;-77
2023/08/30 10:40:25;;;;;;;3.67;2.67;;;;;;;;;;5087504;28;20027;-77
2023/08/30 10:43:03;;;;;;;3.70;2.92;;;;;;;;;;5098695;28;20039;-76
2023/08/30 10:45:30;;;;;;;3.72;3.10;;;;;;;;;;5093790;28;20113;-77
2023/08/30 10:47:56;;;;;;;3.97;3.25;;;;;;;;;;5093729;28;20039;-77
2023/08/30 10:50:29;;;;;;;4.60;3.55;;;;;;;;;;5090361;28;20173;-77
2023/08/30 10:52:55;;;;;;;4.97;3.92;;;;;;;;;;5090963;28;20123;-77
2023/08/30 10:55:22;;;;;;;5.03;3.10;;;;;;;;;;5089725;28;20116;-77
2023/08/30 10:57:59;;;;;;;5.45;3.10;;;;;;;;;;5090268;28;20081;-77
2023/08/30 11:00:24;;;;;;;5.03;3.30;;;;;;;;;;5087832;28;20040;-77
2023/08/30 11:02:51;;;;;;;5.63;4.03;;;;;;;;;;5088836;28;20046;-77
2023/08/30 11:05:18;;;;;;;6.38;4.10;;;;;;;;;;5088725;28;20078;-77
2023/08/30 11:07:45;;;;;;;6.65;5.10;;;;;;;;;;5088443;28;20058;-77
2023/08/30 11:10:11;;;;;;;6.65;5.78;;;;;;;;;;5087340;28;20522;-77
2023/08/30 11:12:37;;;;;;;10.27;5.53;;;;;;;;;;5092274;28;20035;-76
2023/08/30 11:15:03;;;;;;;7.78;6.18;;;;;;;;;;5095252;28;20036;-77
2023/08/30 11:17:28;;;;;;;7.18;5.18;;;;;;;;;;5094969;28;20494;-77
2023/08/30 11:20:04;;;;;;;8.98;6.78;;;;;;;;;;5094922;28;20035;-77
2023/08/30 11:22:30;;;;;;;7.65;5.57;;;;;;;;;;5094478;28;20043;-77
2023/08/30 11:24:55;;;;;;;7.78;4.95;;;;;;;;;;5094628;28;20407;-78
2023/08/30 11:27:21;;;;;;;8.35;5.95;;;;;;;;;;5094911;28;20047;-77
2023/08/30 11:29:46;;;;;;;7.50;4.72;;;;;;;;;;5095511;28;20123;-78
2023/08/30 11:32:11;;;;;;;5.68;3.88;;;;;;;;;;5093336;28;20086;-78
2023/08/30 11:34:37;;;;;;;6.32;4.00;;;;;;;;;;5094967;28;20101;-78
2023/08/30 11:37:03;;;;;;;3.92;3.20;;;;;;;;;;5094956;28;20039;-78
2023/08/30 11:39:29;;;;;;;6.90;3.63;;;;;;;;;;5095167;28;20032;-78
2023/08/30 11:41:54;;;;;;;3.33;2.60;;;;;;;;;;5093722;28;20028;-77
2023/08/30 11:44:23;;;;;;;5.60;3.63;;;;;;;;;;5096080;28;20075;-77
2023/08/30 11:46:49;;;;;;;4.82;2.67;;;;;;;;;;5095932;28;20031;-77
2023/08/30 11:49:16;;;;;;;3.88;2.72;;;;;;;;;;5087569;28;20460;-77
2023/08/30 11:51:42;;;;;;;3.97;2.80;;;;;;;;;;5107717;28;20039;-81
2023/08/30 11:54:08;;;;;;;3.88;2.83;;;;;;;;;;5103370;28;20040;-78
2023/08/30 11:56:35;;;;;;;5.95;2.92;;;;;;;;;;5105255;28;20031;-79
2023/08/30 11:59:00;;;;;;;4.95;2.90;;;;;;;;;;5096134;28;20035;-78
2023/08/30 12:01:26;;;;;;;3.65;3.00;;;;;;;;;;5107655;28;20039;-80
2023/08/30 12:03:51;;;;;;;6.10;2.45;;;;;;;;;;5109390;28;20041;-78
2023/08/30 12:06:17;;;;;;;2.97;2.30;;;;;;;;;;5104078;28;20032;-78
2023/08/30 12:08:43;;;;;;;6.03;3.03;;;;;;;;;;5103430;28;20079;-77
2023/08/30 12:11:20;;;;;;;6.53;2.55;;;;;;;;;;5107926;28;20108;-78
2023/08/30 12:13:47;;;;;;;3.33;2.47;;;;;;;;;;5109213;28;20094;-77
2023/08/30 12:16:20;;;;;;;5.05;2.50;;;;;;;;;;5111254;28;20036;-77
2023/08/30 12:18:46;;;;;;;5.43;2.33;;;;;;;;;;5105088;28;20032;-77
2023/08/30 12:21:13;;;;;;;4.10;2.60;;;;;;;;;;5088363;28;20067;-76
2023/08/30 12:23:38;;;;;;;2.67;2.00;;;;;;;;;;5087016;28;20036;-77
2023/08/30 12:26:09;;;;;;;2.65;2.15;;;;;;;;;;5092066;28;20063;-81
2023/08/30 12:28:37;;;;;;;4.07;2.25;;;;;;;;;;5092577;28;20028;-81
2023/08/30 12:31:05;;;;;;;6.15;3.72;;;;;;;;;;5090747;28;20044;-78
2023/08/30 12:33:31;;;;;;;6.00;2.80;;;;;;;;;;5085871;28;20039;-79
2023/08/30 12:35:57;;;;;;;3.53;2.20;;;;;;;;;;5097322;28;20055;-79
2023/08/30 12:38:24;;;;;;;2.90;2.08;;;;;;;;;;5099925;28;20028;-79
2023/08/30 12:40:54;;;;;;;4.90;2.67;;;;;;;;;;5099306;28;20403;-79
2023/08/30 12:43:20;;;;;;;3.83;2.67;;;;;;;;;;5098510;28;20040;-79
2023/08/30 12:45:47;;;;;;;4.88;3.03;;;;;;;;;;5099636;28;20034;-79
2023/08/30 12:48:15;;;;;;;3.65;2.28;;;;;;;;;;5098153;28;20479;-79
2023/08/30 12:50:41;;;;;;;3.63;2.08;;;;;;;;;;5097736;28;20031;-79
2023/08/30 12:53:07;;;;;;;4.47;2.10;;;;;;;;;;5101001;28;20040;-79
2023/08/30 12:55:34;;;;;;;3.42;2.30;;;;;;;;;;5110297;28;20027;-79
2023/08/30 12:57:59;;;;;;;2.70;2.17;;;;;;;;;;5118445;28;20040;-79
2023/08/30 13:00:25;;;;;;;3.83;2.53;;;;;;;;;;5117986;28;20046;-80
2023/08/30 13:02:51;;;;;;;3.50;2.45;;;;;;;;;;5117366;28;20032;-78
2023/08/30 13:05:17;;;;;;;3.72;2.38;;;;;;;;;;5119872;28;20593;-79
2023/08/30 13:07:42;;;;;;;4.18;2.40;;;;;;;;;;5106555;28;20101;-79
2023/08/30 13:10:08;;;;;;;4.25;2.40;;;;;;;;;;5098489;28;20038;-79
2023/08/30 13:12:34;;;;;;;2.33;1.70;;;;;;;;;;5098481;28;20574;-79
2023/08/30 13:14:59;;;;;;;2.65;2.00;;;;;;;;;;5098244;28;20039;-79
2023/08/30 13:17:25;;;;;;;4.15;2.30;;;;;;;;;;5096813;28;20089;-79
2023/08/30 13:19:50;;;;;;;4.60;2.00;;;;;;;;;;5097908;28;20658;-79
2023/08/30 13:22:16;;;;;;;2.67;2.10;;;;;;;;;;5102043;28;20472;-79
2023/08/30 13:24:41;;;;;;;3.75;2.40;;;;;;;;;;5101494;28;20071;-79
2023/08/30 13:27:07;;;;;;;3.28;2.13;;;;;;;;;;5101002;28;20040;-79
2023/08/30 13:29:32;;;;;;;6.15;2.38;;;;;;;;;;5100432;28;20050;-79
2023/08/30 13:31:58;;;;;;;2.67;2.13;;;;;;;;;;5100070;28;20040;-79
2023/08/30 13:34:23;;;;;;;4.88;2.30;;;;;;;;;;5098384;28;20087;-79
2023/08/30 13:36:49;;;;;;;6.53;2.47;;;;;;;;;;5099649;28;20062;-80
2023/08/30 13:39:14;;;;;;;6.93;2.97;;;;;;;;;;5096859;28;20036;-80
2023/08/30 13:41:40;;;;;;;7.40;3.20;;;;;;;;;;5073479;28;20032;-79
2023/08/30 13:44:06;;;;;;;5.38;3.00;;;;;;;;;;5084370;28;20099;-79
2023/08/30 13:46:32;;;;;;;3.58;2.40;;;;;;;;;;5095381;28;20138;-79
2023/08/30 13:48:58;;;;;;;3.22;2.00;;;;;;;;;;5092107;28;20464;-80
2023/08/30 13:51:25;;;;;;;2.47;1.95;;;;;;;;;;5080616;28;20023;-79
2023/08/30 13:53:51;;;;;;;3.95;2.30;;;;;;;;;;5090799;28;20033;-79
2023/08/30 13:56:18;;;;;;;3.88;1.92;;;;;;;;;;5090573;28;20032;-79
2023/08/30 13:58:44;;;;;;;3.00;2.05;;;;;;;;;;5094964;28;20032;-79
2023/08/30 14:01:10;;;;;;;3.38;2.00;;;;;;;;;;5097686;28;20562;-79
2023/08/30 14:03:36;;;;;;;5.03;2.28;;;;;;;;;;5095476;28;20055;-79
2023/08/30 14:06:02;;;;;;;3.92;1.92;;;;;;;;;;5076342;28;20058;-80
2023/08/30 14:08:31;;;;;;;2.70;1.98;;;;;;;;;;5105419;28;20046;-80
2023/08/30 14:10:58;;;;;;;5.90;2.83;;;;;;;;;;5095281;28;20127;-79
2023/08/30 14:13:24;;;;;;;4.00;2.05;;;;;;;;;;5088653;28;20463;-82
2023/08/30 14:15:50;;;;;;;4.60;2.47;;;;;;;;;;5094090;28;20042;-80
2023/08/30 14:18:16;;;;;;;4.00;2.25;;;;;;;;;;5097224;28;20431;-80
2023/08/30 14:20:42;;;;;;;4.65;2.47;;;;;;;;;;5075169;28;20062;-80
2023/08/30 14:23:09;;;;;;;5.00;2.65;;;;;;;;;;5080673;28;20092;-80
2023/08/30 14:25:37;;;;;;;5.45;2.40;;;;;;;;;;5081935;28;20079;-80
2023/08/30 14:28:03;;;;;;;3.42;2.15;;;;;;;;;;5114517;28;20047;-79
2023/08/30 14:30:37;;;;;;;5.38;2.45;;;;;;;;;;5083265;28;20051;-80
2023/08/30 14:33:03;;;;;;;16.15;5.18;;;;;;;;;;5087290;28;20059;-79
2023/08/30 14:35:31;;;;;;;5.85;3.20;;;;;;;;;;5103844;28;20020;-80
2023/08/30 14:37:56;;;;;;;4.40;2.50;;;;;;;;;;5080046;28;20115;-80
2023/08/30 14:40:23;;;;;;;5.22;2.60;;;;;;;;;;5098219;28;20062;-80